This is the latest recevied weather packets stored in our database for station/object N1IJV-10. If no packets are shown the sender has not sent any weather packets the latest 1 day(s).
| Time | Temp. | Humidity | Pressure | Rain* | Wind** | Luminosity | Snow |
|---|---|---|---|---|---|---|---|
| 1778081714 | 12.22° C | 43% | 1013.4 hPa | 0 mm | - | 494 W/m² | - |
| 1778080201 | 11.67° C | 46% | 1013.6 hPa | 0 mm | - | 207 W/m² | - |
| 1778079897 | 11.67° C | 47% | 1013.6 hPa | 0 mm | - | 255 W/m² | - |
| 1778079594 | 11.67° C | 46% | 1013.6 hPa | 0 mm | - | 389 W/m² | - |
| 1778078383 | 11.67° C | 49% | 1013.6 hPa | 0 mm | - | 330 W/m² | - |
| 1778078079 | 11.67° C | 48% | 1013.8 hPa | 0 mm | - | 273 W/m² | - |
| 1778077778 | 11.11° C | 49% | 1013.7 hPa | 0 mm | - | 262 W/m² | - |
| 1778076266 | 11.11° C | 45% | 1013.7 hPa | 0 mm | - | 297 W/m² | - |
| 1778075052 | 10° C | 54% | 1013.3 hPa | 0 mm | - | 178 W/m² | - |
| 1778074446 | 9.44° C | 59% | 1013.3 hPa | 0 mm | - | 150 W/m² | - |
| 1778073538 | 8.89° C | 65% | 1013 hPa | 0 mm | - | 116 W/m² | - |
| 1778072931 | 8.33° C | 70% | 1012.9 hPa | 0 mm | - | 112 W/m² | - |
| 1778071418 | 7.22° C | 77% | 1012.8 hPa | 0 mm | - | 93 W/m² | - |
| 1778071116 | 7.22° C | 78% | 1012.6 hPa | 0 mm | - | 83 W/m² | - |
| 1778070208 | 6.11° C | 76% | 1012.6 hPa | 0 mm | - | 62 W/m² | - |
| 1778069603 | 5.56° C | 79% | 1012.3 hPa | 0 mm | - | 57 W/m² | - |
| 1778069300 | 5.56° C | 81% | 1012.3 hPa | 0 mm | - | 55 W/m² | - |
| 1778068998 | 5.56° C | 82% | 1012.3 hPa | 0 mm | - | 51 W/m² | - |
| 1778068695 | 5° C | 84% | 1012.2 hPa | 0 mm | - | 43 W/m² | - |
| 1778068394 | 5° C | 84% | 1011.9 hPa | 0 mm | - | 46 W/m² | - |
| 1778067184 | 3.33° C | 89% | 1011.8 hPa | 0 mm | - | 30 W/m² | - |
| 1778066275 | 2.78° C | 89% | 1012.2 hPa | 0 mm | - | 20 W/m² | - |
| 1778065973 | 2.78° C | 89% | 1011.7 hPa | 0 mm | - | 17 W/m² | - |
| 1778065670 | 2.78° C | 88% | 1011.7 hPa | 0 mm | - | 13 W/m² | - |
| 1778064458 | 2.78° C | 87% | 1011.8 hPa | 0 mm | - | 1 W/m² | - |
* Rain latest hour (hover to see other rain measurements)
** Current wind speed in m/s (hover to see current wind gust speed)